sensor_id;sensor_type;location;lat;lon;timestamp;temperature;humidity
39931;DHT22;26635;-35.248;149.138;2024-03-29T00:00:55;20.70;73.60
39931;DHT22;26635;-35.248;149.138;2024-03-29T00:03:23;20.90;72.70
39931;DHT22;26635;-35.248;149.138;2024-03-29T00:05:53;21.10;72.20
39931;DHT22;26635;-35.248;149.138;2024-03-29T00:08:23;21.30;71.00
39931;DHT22;26635;-35.248;149.138;2024-03-29T00:10:53;21.40;70.50
39931;DHT22;26635;-35.248;149.138;2024-03-29T00:13:23;21.50;70.60
39931;DHT22;26635;-35.248;149.138;2024-03-29T00:15:53;21.70;70.90
39931;DHT22;26635;-35.248;149.138;2024-03-29T00:18:22;21.80;70.00
39931;DHT22;26635;-35.248;149.138;2024-03-29T00:20:53;22.00;67.80
39931;DHT22;26635;-35.248;149.138;2024-03-29T00:23:23;22.10;67.80
39931;DHT22;26635;-35.248;149.138;2024-03-29T00:25:52;22.30;68.10
39931;DHT22;26635;-35.248;149.138;2024-03-29T00:28:25;22.40;68.90
39931;DHT22;26635;-35.248;149.138;2024-03-29T00:30:56;22.50;66.20
39931;DHT22;26635;-35.248;149.138;2024-03-29T00:33:24;22.50;65.70
39931;DHT22;26635;-35.248;149.138;2024-03-29T00:35:53;22.60;66.70
39931;DHT22;26635;-35.248;149.138;2024-03-29T00:38:27;22.80;66.30
39931;DHT22;26635;-35.248;149.138;2024-03-29T00:40:55;22.90;66.00
39931;DHT22;26635;-35.248;149.138;2024-03-29T00:43:23;23.00;64.10
39931;DHT22;26635;-35.248;149.138;2024-03-29T00:45:53;22.90;64.10
39931;DHT22;26635;-35.248;149.138;2024-03-29T00:48:21;23.00;63.80
39931;DHT22;26635;-35.248;149.138;2024-03-29T00:50:50;23.10;63.20
39931;DHT22;26635;-35.248;149.138;2024-03-29T00:53:18;23.10;63.30
39931;DHT22;26635;-35.248;149.138;2024-03-29T00:55:48;23.10;62.60
39931;DHT22;26635;-35.248;149.138;2024-03-29T00:58:17;23.10;62.40
39931;DHT22;26635;-35.248;149.138;2024-03-29T01:00:45;23.30;63.20
39931;DHT22;26635;-35.248;149.138;2024-03-29T01:03:14;23.40;63.00
39931;DHT22;26635;-35.248;149.138;2024-03-29T01:05:42;23.60;62.10
39931;DHT22;26635;-35.248;149.138;2024-03-29T01:08:11;23.70;61.10
39931;DHT22;26635;-35.248;149.138;2024-03-29T01:10:39;23.80;60.30
39931;DHT22;26635;-35.248;149.138;2024-03-29T01:13:08;23.80;60.60
39931;DHT22;26635;-35.248;149.138;2024-03-29T01:15:37;23.90;60.00
39931;DHT22;26635;-35.248;149.138;2024-03-29T01:18:07;23.90;59.70
39931;DHT22;26635;-35.248;149.138;2024-03-29T01:20:37;24.00;60.20
39931;DHT22;26635;-35.248;149.138;2024-03-29T01:23:07;24.20;59.70
39931;DHT22;26635;-35.248;149.138;2024-03-29T01:25:35;24.20;60.30
39931;DHT22;26635;-35.248;149.138;2024-03-29T01:28:04;24.30;59.30
39931;DHT22;26635;-35.248;149.138;2024-03-29T01:30:34;24.50;59.80
39931;DHT22;26635;-35.248;149.138;2024-03-29T01:33:03;24.60;58.80
39931;DHT22;26635;-35.248;149.138;2024-03-29T01:35:32;24.60;57.10
39931;DHT22;26635;-35.248;149.138;2024-03-29T01:38:02;24.60;57.80
39931;DHT22;26635;-35.248;149.138;2024-03-29T01:40:31;24.70;58.10
39931;DHT22;26635;-35.248;149.138;2024-03-29T01:43:01;24.80;58.00
39931;DHT22;26635;-35.248;149.138;2024-03-29T01:45:30;24.70;57.10
39931;DHT22;26635;-35.248;149.138;2024-03-29T01:47:59;24.90;58.10
39931;DHT22;26635;-35.248;149.138;2024-03-29T01:50:27;25.10;57.40
39931;DHT22;26635;-35.248;149.138;2024-03-29T01:52:56;25.20;57.20
39931;DHT22;26635;-35.248;149.138;2024-03-29T01:55:26;25.30;56.30
39931;DHT22;26635;-35.248;149.138;2024-03-29T01:57:54;25.40;56.10
39931;DHT22;26635;-35.248;149.138;2024-03-29T02:00:23;25.50;56.40
39931;DHT22;26635;-35.248;149.138;2024-03-29T02:02:52;25.50;54.80
39931;DHT22;26635;-35.248;149.138;2024-03-29T02:05:21;25.50;54.50
39931;DHT22;26635;-35.248;149.138;2024-03-29T02:07:50;25.60;55.80
39931;DHT22;26635;-35.248;149.138;2024-03-29T02:10:19;25.60;55.00
39931;DHT22;26635;-35.248;149.138;2024-03-29T02:12:49;25.70;55.10
39931;DHT22;26635;-35.248;149.138;2024-03-29T02:15:17;25.70;55.00
39931;DHT22;26635;-35.248;149.138;2024-03-29T02:17:45;25.80;55.00
39931;DHT22;26635;-35.248;149.138;2024-03-29T02:20:14;25.70;54.50
39931;DHT22;26635;-35.248;149.138;2024-03-29T02:22:53;25.80;54.60
39931;DHT22;26635;-35.248;149.138;2024-03-29T02:25:22;25.80;53.30
39931;DHT22;26635;-35.248;149.138;2024-03-29T02:27:51;25.90;53.90
39931;DHT22;26635;-35.248;149.138;2024-03-29T02:30:21;26.00;53.50
39931;DHT22;26635;-35.248;149.138;2024-03-29T02:32:50;26.10;53.30
39931;DHT22;26635;-35.248;149.138;2024-03-29T02:35:19;26.20;54.10
39931;DHT22;26635;-35.248;149.138;2024-03-29T02:37:47;26.40;54.20
39931;DHT22;26635;-35.248;149.138;2024-03-29T02:40:16;26.50;53.00
39931;DHT22;26635;-35.248;149.138;2024-03-29T02:42:47;26.60;52.60
39931;DHT22;26635;-35.248;149.138;2024-03-29T02:45:17;26.60;52.90
39931;DHT22;26635;-35.248;149.138;2024-03-29T02:47:47;26.50;50.20
39931;DHT22;26635;-35.248;149.138;2024-03-29T02:50:16;26.40;51.40
39931;DHT22;26635;-35.248;149.138;2024-03-29T02:52:44;26.40;51.20
39931;DHT22;26635;-35.248;149.138;2024-03-29T02:55:12;26.40;51.90
39931;DHT22;26635;-35.248;149.138;2024-03-29T02:57:41;26.30;51.90
39931;DHT22;26635;-35.248;149.138;2024-03-29T03:00:10;26.40;52.60
39931;DHT22;26635;-35.248;149.138;2024-03-29T03:02:40;26.50;52.30
39931;DHT22;26635;-35.248;149.138;2024-03-29T03:05:09;26.60;51.60
39931;DHT22;26635;-35.248;149.138;2024-03-29T03:07:37;26.70;51.20
39931;DHT22;26635;-35.248;149.138;2024-03-29T03:10:23;26.80;50.80
39931;DHT22;26635;-35.248;149.138;2024-03-29T03:13:09;26.80;50.40
39931;DHT22;26635;-35.248;149.138;2024-03-29T03:15:39;26.80;50.80
39931;DHT22;26635;-35.248;149.138;2024-03-29T03:18:08;26.90;50.50
39931;DHT22;26635;-35.248;149.138;2024-03-29T03:20:38;26.90;50.90
39931;DHT22;26635;-35.248;149.138;2024-03-29T03:23:07;26.90;51.30
39931;DHT22;26635;-35.248;149.138;2024-03-29T03:25:37;26.90;51.10
39931;DHT22;26635;-35.248;149.138;2024-03-29T03:28:06;26.90;51.00
39931;DHT22;26635;-35.248;149.138;2024-03-29T03:30:40;26.80;51.10
39931;DHT22;26635;-35.248;149.138;2024-03-29T03:33:10;26.80;52.30
39931;DHT22;26635;-35.248;149.138;2024-03-29T03:35:40;26.90;51.20
39931;DHT22;26635;-35.248;149.138;2024-03-29T03:38:10;26.90;49.80
39931;DHT22;26635;-35.248;149.138;2024-03-29T03:40:40;26.80;50.20
39931;DHT22;26635;-35.248;149.138;2024-03-29T03:43:10;26.80;50.70
39931;DHT22;26635;-35.248;149.138;2024-03-29T03:45:39;26.90;50.50
39931;DHT22;26635;-35.248;149.138;2024-03-29T03:48:10;26.70;49.20
39931;DHT22;26635;-35.248;149.138;2024-03-29T03:50:40;26.70;50.60
39931;DHT22;26635;-35.248;149.138;2024-03-29T03:53:10;26.80;51.10
39931;DHT22;26635;-35.248;149.138;2024-03-29T03:55:41;26.80;50.70
39931;DHT22;26635;-35.248;149.138;2024-03-29T03:58:11;26.90;51.60
39931;DHT22;26635;-35.248;149.138;2024-03-29T04:00:41;26.90;50.20
39931;DHT22;26635;-35.248;149.138;2024-03-29T04:03:10;26.70;49.80
39931;DHT22;26635;-35.248;149.138;2024-03-29T04:05:40;26.70;50.80
39931;DHT22;26635;-35.248;149.138;2024-03-29T04:08:08;26.70;49.70
39931;DHT22;26635;-35.248;149.138;2024-03-29T04:10:39;26.70;50.70
39931;DHT22;26635;-35.248;149.138;2024-03-29T04:13:13;26.70;51.10
39931;DHT22;26635;-35.248;149.138;2024-03-29T04:15:42;26.70;51.20
39931;DHT22;26635;-35.248;149.138;2024-03-29T04:18:10;26.80;49.80
39931;DHT22;26635;-35.248;149.138;2024-03-29T04:20:39;26.80;49.40
39931;DHT22;26635;-35.248;149.138;2024-03-29T04:23:07;26.80;49.80
39931;DHT22;26635;-35.248;149.138;2024-03-29T04:25:35;26.70;50.10
39931;DHT22;26635;-35.248;149.138;2024-03-29T04:28:04;26.80;50.30
39931;DHT22;26635;-35.248;149.138;2024-03-29T04:30:32;26.90;50.40
39931;DHT22;26635;-35.248;149.138;2024-03-29T04:33:02;26.90;49.90
39931;DHT22;26635;-35.248;149.138;2024-03-29T04:35:32;26.90;49.30
39931;DHT22;26635;-35.248;149.138;2024-03-29T04:38:01;26.90;49.20
39931;DHT22;26635;-35.248;149.138;2024-03-29T04:40:31;26.90;49.20
39931;DHT22;26635;-35.248;149.138;2024-03-29T04:43:01;26.90;49.90
39931;DHT22;26635;-35.248;149.138;2024-03-29T04:45:29;26.90;49.20
39931;DHT22;26635;-35.248;149.138;2024-03-29T04:47:57;26.80;49.00
39931;DHT22;26635;-35.248;149.138;2024-03-29T04:50:26;26.70;49.00
39931;DHT22;26635;-35.248;149.138;2024-03-29T04:52:54;26.60;51.10
39931;DHT22;26635;-35.248;149.138;2024-03-29T04:55:22;26.50;49.00
39931;DHT22;26635;-35.248;149.138;2024-03-29T04:57:52;26.40;49.20
39931;DHT22;26635;-35.248;149.138;2024-03-29T05:00:20;26.40;50.50
39931;DHT22;26635;-35.248;149.138;2024-03-29T05:02:49;26.40;49.30
39931;DHT22;26635;-35.248;149.138;2024-03-29T05:05:17;26.30;49.50
39931;DHT22;26635;-35.248;149.138;2024-03-29T05:07:45;26.30;50.00
39931;DHT22;26635;-35.248;149.138;2024-03-29T05:10:14;26.30;49.90
39931;DHT22;26635;-35.248;149.138;2024-03-29T05:12:44;26.30;49.50
39931;DHT22;26635;-35.248;149.138;2024-03-29T05:15:13;26.30;50.00
39931;DHT22;26635;-35.248;149.138;2024-03-29T05:17:43;26.20;51.30
39931;DHT22;26635;-35.248;149.138;2024-03-29T05:20:11;26.30;50.70
39931;DHT22;26635;-35.248;149.138;2024-03-29T05:22:40;26.30;50.40
39931;DHT22;26635;-35.248;149.138;2024-03-29T05:25:08;26.30;49.50
39931;DHT22;26635;-35.248;149.138;2024-03-29T05:27:36;26.20;50.60
39931;DHT22;26635;-35.248;149.138;2024-03-29T05:30:05;26.30;50.60
39931;DHT22;26635;-35.248;149.138;2024-03-29T05:32:36;26.30;50.00
39931;DHT22;26635;-35.248;149.138;2024-03-29T05:35:04;26.30;48.50
39931;DHT22;26635;-35.248;149.138;2024-03-29T05:37:35;26.20;48.90
39931;DHT22;26635;-35.248;149.138;2024-03-29T05:40:04;26.10;50.00
39931;DHT22;26635;-35.248;149.138;2024-03-29T05:42:35;26.10;50.40
39931;DHT22;26635;-35.248;149.138;2024-03-29T05:45:05;26.10;49.90
39931;DHT22;26635;-35.248;149.138;2024-03-29T05:47:48;26.00;50.00
39931;DHT22;26635;-35.248;149.138;2024-03-29T05:50:17;26.00;50.20
39931;DHT22;26635;-35.248;149.138;2024-03-29T05:52:47;26.00;50.00
39931;DHT22;26635;-35.248;149.138;2024-03-29T05:55:16;26.00;49.00
39931;DHT22;26635;-35.248;149.138;2024-03-29T05:57:45;26.00;49.30
39931;DHT22;26635;-35.248;149.138;2024-03-29T06:00:16;25.90;48.80
39931;DHT22;26635;-35.248;149.138;2024-03-29T06:02:44;25.90;49.70
39931;DHT22;26635;-35.248;149.138;2024-03-29T06:05:13;25.90;49.50
39931;DHT22;26635;-35.248;149.138;2024-03-29T06:07:42;26.00;49.30
39931;DHT22;26635;-35.248;149.138;2024-03-29T06:10:11;25.90;49.20
39931;DHT22;26635;-35.248;149.138;2024-03-29T06:12:40;25.90;48.80
39931;DHT22;26635;-35.248;149.138;2024-03-29T06:15:10;25.90;48.60
39931;DHT22;26635;-35.248;149.138;2024-03-29T06:17:56;25.90;48.70
39931;DHT22;26635;-35.248;149.138;2024-03-29T06:20:25;25.90;48.50
39931;DHT22;26635;-35.248;149.138;2024-03-29T06:22:53;25.80;48.20
39931;DHT22;26635;-35.248;149.138;2024-03-29T06:25:21;25.80;49.10
39931;DHT22;26635;-35.248;149.138;2024-03-29T06:27:50;25.80;49.60
39931;DHT22;26635;-35.248;149.138;2024-03-29T06:30:18;25.70;48.50
39931;DHT22;26635;-35.248;149.138;2024-03-29T06:32:47;25.70;49.40
39931;DHT22;26635;-35.248;149.138;2024-03-29T06:35:15;25.70;48.60
39931;DHT22;26635;-35.248;149.138;2024-03-29T06:37:44;25.60;48.80
39931;DHT22;26635;-35.248;149.138;2024-03-29T06:40:12;25.60;48.40
39931;DHT22;26635;-35.248;149.138;2024-03-29T06:42:41;25.60;48.20
39931;DHT22;26635;-35.248;149.138;2024-03-29T06:45:09;25.50;48.70
39931;DHT22;26635;-35.248;149.138;2024-03-29T06:47:37;25.40;48.90
39931;DHT22;26635;-35.248;149.138;2024-03-29T06:50:06;25.40;49.90
39931;DHT22;26635;-35.248;149.138;2024-03-29T06:52:36;25.40;48.50
39931;DHT22;26635;-35.248;149.138;2024-03-29T06:55:06;25.40;49.40
39931;DHT22;26635;-35.248;149.138;2024-03-29T06:57:36;25.40;50.20
39931;DHT22;26635;-35.248;149.138;2024-03-29T07:00:05;25.30;49.50
39931;DHT22;26635;-35.248;149.138;2024-03-29T07:02:34;25.20;50.00
39931;DHT22;26635;-35.248;149.138;2024-03-29T07:05:04;25.20;49.30
39931;DHT22;26635;-35.248;149.138;2024-03-29T07:07:39;25.20;49.60
39931;DHT22;26635;-35.248;149.138;2024-03-29T07:10:10;25.10;49.30
39931;DHT22;26635;-35.248;149.138;2024-03-29T07:12:38;25.10;50.00
39931;DHT22;26635;-35.248;149.138;2024-03-29T07:15:08;25.00;49.90
39931;DHT22;26635;-35.248;149.138;2024-03-29T07:17:38;25.00;50.10
39931;DHT22;26635;-35.248;149.138;2024-03-29T07:20:09;24.90;50.80
39931;DHT22;26635;-35.248;149.138;2024-03-29T07:22:40;24.90;51.10
39931;DHT22;26635;-35.248;149.138;2024-03-29T07:25:09;24.80;52.90
39931;DHT22;26635;-35.248;149.138;2024-03-29T07:27:39;24.80;51.30
39931;DHT22;26635;-35.248;149.138;2024-03-29T07:30:10;24.70;51.10
39931;DHT22;26635;-35.248;149.138;2024-03-29T07:32:38;24.60;51.20
39931;DHT22;26635;-35.248;149.138;2024-03-29T07:35:07;24.50;51.80
39931;DHT22;26635;-35.248;149.138;2024-03-29T07:37:37;24.50;52.80
39931;DHT22;26635;-35.248;149.138;2024-03-29T07:40:07;24.30;54.20
39931;DHT22;26635;-35.248;149.138;2024-03-29T07:42:35;24.20;54.00
39931;DHT22;26635;-35.248;149.138;2024-03-29T07:45:04;24.20;54.40
39931;DHT22;26635;-35.248;149.138;2024-03-29T07:47:33;24.10;54.20
39931;DHT22;26635;-35.248;149.138;2024-03-29T07:50:03;24.00;54.00
39931;DHT22;26635;-35.248;149.138;2024-03-29T07:52:34;23.90;54.50
39931;DHT22;26635;-35.248;149.138;2024-03-29T07:55:03;23.80;54.40
39931;DHT22;26635;-35.248;149.138;2024-03-29T07:57:33;23.80;56.30
39931;DHT22;26635;-35.248;149.138;2024-03-29T08:00:04;23.70;54.80
39931;DHT22;26635;-35.248;149.138;2024-03-29T08:02:33;23.60;55.30
39931;DHT22;26635;-35.248;149.138;2024-03-29T08:05:02;23.60;55.10
39931;DHT22;26635;-35.248;149.138;2024-03-29T08:07:33;23.50;55.80
39931;DHT22;26635;-35.248;149.138;2024-03-29T08:10:02;23.50;55.10
39931;DHT22;26635;-35.248;149.138;2024-03-29T08:12:30;23.40;56.20
39931;DHT22;26635;-35.248;149.138;2024-03-29T08:14:59;23.40;56.40
39931;DHT22;26635;-35.248;149.138;2024-03-29T08:17:28;23.30;56.00
39931;DHT22;26635;-35.248;149.138;2024-03-29T08:19:58;23.20;55.90
39931;DHT22;26635;-35.248;149.138;2024-03-29T08:22:26;23.10;55.60
39931;DHT22;26635;-35.248;149.138;2024-03-29T08:24:56;23.10;56.60
39931;DHT22;26635;-35.248;149.138;2024-03-29T08:27:26;23.10;55.80
39931;DHT22;26635;-35.248;149.138;2024-03-29T08:29:55;23.00;56.20
39931;DHT22;26635;-35.248;149.138;2024-03-29T08:32:23;22.90;57.00
39931;DHT22;26635;-35.248;149.138;2024-03-29T08:34:52;22.90;56.50
39931;DHT22;26635;-35.248;149.138;2024-03-29T08:37:23;22.80;57.00
39931;DHT22;26635;-35.248;149.138;2024-03-29T08:39:51;22.80;56.50
39931;DHT22;26635;-35.248;149.138;2024-03-29T08:42:19;22.70;56.40
39931;DHT22;26635;-35.248;149.138;2024-03-29T08:44:47;22.60;55.70
39931;DHT22;26635;-35.248;149.138;2024-03-29T08:47:16;22.60;56.30
39931;DHT22;26635;-35.248;149.138;2024-03-29T08:49:47;22.60;56.10
39931;DHT22;26635;-35.248;149.138;2024-03-29T08:52:16;22.60;57.10
39931;DHT22;26635;-35.248;149.138;2024-03-29T08:54:45;22.50;56.60
39931;DHT22;26635;-35.248;149.138;2024-03-29T08:57:14;22.50;56.80
39931;DHT22;26635;-35.248;149.138;2024-03-29T08:59:42;22.50;57.20
39931;DHT22;26635;-35.248;149.138;2024-03-29T09:02:10;22.40;58.10
39931;DHT22;26635;-35.248;149.138;2024-03-29T09:04:38;22.40;59.40
39931;DHT22;26635;-35.248;149.138;2024-03-29T09:07:07;22.40;60.40
39931;DHT22;26635;-35.248;149.138;2024-03-29T09:09:36;22.40;62.00
39931;DHT22;26635;-35.248;149.138;2024-03-29T09:12:09;22.40;64.30
39931;DHT22;26635;-35.248;149.138;2024-03-29T09:14:37;22.30;66.20
39931;DHT22;26635;-35.248;149.138;2024-03-29T09:17:05;22.20;68.40
39931;DHT22;26635;-35.248;149.138;2024-03-29T09:19:34;22.10;71.10
39931;DHT22;26635;-35.248;149.138;2024-03-29T09:22:02;22.00;72.60
39931;DHT22;26635;-35.248;149.138;2024-03-29T09:24:30;22.00;73.90
39931;DHT22;26635;-35.248;149.138;2024-03-29T09:27:01;21.90;74.80
39931;DHT22;26635;-35.248;149.138;2024-03-29T09:29:30;21.90;75.30
39931;DHT22;26635;-35.248;149.138;2024-03-29T09:31:58;21.80;76.00
39931;DHT22;26635;-35.248;149.138;2024-03-29T09:34:27;21.80;76.50
39931;DHT22;26635;-35.248;149.138;2024-03-29T09:36:57;21.70;77.30
39931;DHT22;26635;-35.248;149.138;2024-03-29T09:39:25;21.70;77.70
39931;DHT22;26635;-35.248;149.138;2024-03-29T09:41:57;21.70;77.70
39931;DHT22;26635;-35.248;149.138;2024-03-29T09:44:31;21.70;77.90
39931;DHT22;26635;-35.248;149.138;2024-03-29T09:47:03;21.60;78.30
39931;DHT22;26635;-35.248;149.138;2024-03-29T09:49:33;21.60;78.60
39931;DHT22;26635;-35.248;149.138;2024-03-29T09:52:03;21.60;78.90
39931;DHT22;26635;-35.248;149.138;2024-03-29T09:54:32;21.50;79.00
39931;DHT22;26635;-35.248;149.138;2024-03-29T09:57:01;21.50;78.90
39931;DHT22;26635;-35.248;149.138;2024-03-29T09:59:31;21.50;78.90
39931;DHT22;26635;-35.248;149.138;2024-03-29T10:02:10;21.40;79.20
39931;DHT22;26635;-35.248;149.138;2024-03-29T10:04:40;21.40;79.50
39931;DHT22;26635;-35.248;149.138;2024-03-29T10:07:12;21.20;80.00
39931;DHT22;26635;-35.248;149.138;2024-03-29T10:09:46;21.20;80.40
39931;DHT22;26635;-35.248;149.138;2024-03-29T10:12:16;21.10;80.70
39931;DHT22;26635;-35.248;149.138;2024-03-29T10:14:49;21.10;80.70
39931;DHT22;26635;-35.248;149.138;2024-03-29T10:17:23;21.00;81.30
39931;DHT22;26635;-35.248;149.138;2024-03-29T10:19:53;21.00;81.20
39931;DHT22;26635;-35.248;149.138;2024-03-29T10:22:21;20.80;81.90
39931;DHT22;26635;-35.248;149.138;2024-03-29T10:24:49;20.80;82.40
39931;DHT22;26635;-35.248;149.138;2024-03-29T10:27:18;20.70;83.70
39931;DHT22;26635;-35.248;149.138;2024-03-29T10:29:46;20.70;82.60
39931;DHT22;26635;-35.248;149.138;2024-03-29T10:32:17;20.60;83.10
39931;DHT22;26635;-35.248;149.138;2024-03-29T10:34:48;20.60;82.80
39931;DHT22;26635;-35.248;149.138;2024-03-29T10:37:16;20.50;83.60
39931;DHT22;26635;-35.248;149.138;2024-03-29T10:39:52;20.50;83.80
39931;DHT22;26635;-35.248;149.138;2024-03-29T10:42:21;20.40;84.00
39931;DHT22;26635;-35.248;149.138;2024-03-29T10:44:50;20.40;84.10
39931;DHT22;26635;-35.248;149.138;2024-03-29T10:47:20;20.40;84.40
39931;DHT22;26635;-35.248;149.138;2024-03-29T10:49:50;20.30;85.50
39931;DHT22;26635;-35.248;149.138;2024-03-29T10:52:21;20.30;84.60
39931;DHT22;26635;-35.248;149.138;2024-03-29T10:54:53;20.20;85.10
39931;DHT22;26635;-35.248;149.138;2024-03-29T10:57:26;20.10;85.40
39931;DHT22;26635;-35.248;149.138;2024-03-29T11:00:16;20.10;85.40
39931;DHT22;26635;-35.248;149.138;2024-03-29T11:05:48;20.10;86.00
39931;DHT22;26635;-35.248;149.138;2024-03-29T11:08:21;20.00;85.80
39931;DHT22;26635;-35.248;149.138;2024-03-29T11:10:54;19.90;85.50
39931;DHT22;26635;-35.248;149.138;2024-03-29T11:15:54;19.90;85.80
39931;DHT22;26635;-35.248;149.138;2024-03-29T11:18:24;19.90;86.00
39931;DHT22;26635;-35.248;149.138;2024-03-29T11:20:59;19.80;86.10
39931;DHT22;26635;-35.248;149.138;2024-03-29T11:23:31;19.90;85.60
39931;DHT22;26635;-35.248;149.138;2024-03-29T11:26:01;19.80;86.00
39931;DHT22;26635;-35.248;149.138;2024-03-29T11:28:32;19.80;86.80
39931;DHT22;26635;-35.248;149.138;2024-03-29T11:31:09;19.70;86.70
39931;DHT22;26635;-35.248;149.138;2024-03-29T11:36:21;19.60;87.10
39931;DHT22;26635;-35.248;149.138;2024-03-29T11:38:57;19.60;87.50
39931;DHT22;26635;-35.248;149.138;2024-03-29T11:41:27;19.50;87.70
39931;DHT22;26635;-35.248;149.138;2024-03-29T11:43:58;19.50;87.50
39931;DHT22;26635;-35.248;149.138;2024-03-29T11:46:28;19.50;88.00
39931;DHT22;26635;-35.248;149.138;2024-03-29T11:49:01;19.40;87.90
39931;DHT22;26635;-35.248;149.138;2024-03-29T11:51:32;19.40;88.40
39931;DHT22;26635;-35.248;149.138;2024-03-29T11:54:02;19.30;88.60
39931;DHT22;26635;-35.248;149.138;2024-03-29T11:56:31;19.30;88.70
39931;DHT22;26635;-35.248;149.138;2024-03-29T11:58:59;19.30;88.60
39931;DHT22;26635;-35.248;149.138;2024-03-29T12:01:27;19.20;89.00
39931;DHT22;26635;-35.248;149.138;2024-03-29T12:03:57;19.10;88.90
39931;DHT22;26635;-35.248;149.138;2024-03-29T12:06:25;19.10;89.20
39931;DHT22;26635;-35.248;149.138;2024-03-29T12:08:53;19.00;89.80
39931;DHT22;26635;-35.248;149.138;2024-03-29T12:11:24;19.00;89.40
39931;DHT22;26635;-35.248;149.138;2024-03-29T12:13:55;19.00;89.30
39931;DHT22;26635;-35.248;149.138;2024-03-29T12:16:24;19.00;89.90
39931;DHT22;26635;-35.248;149.138;2024-03-29T12:18:52;19.00;90.00
39931;DHT22;26635;-35.248;149.138;2024-03-29T12:21:20;18.90;89.80
39931;DHT22;26635;-35.248;149.138;2024-03-29T12:23:49;18.90;90.00
39931;DHT22;26635;-35.248;149.138;2024-03-29T12:26:17;18.90;90.10
39931;DHT22;26635;-35.248;149.138;2024-03-29T12:28:50;18.80;90.30
39931;DHT22;26635;-35.248;149.138;2024-03-29T12:31:18;18.80;90.30
39931;DHT22;26635;-35.248;149.138;2024-03-29T12:33:53;18.80;90.30
39931;DHT22;26635;-35.248;149.138;2024-03-29T12:36:26;18.70;91.10
39931;DHT22;26635;-35.248;149.138;2024-03-29T12:38:56;18.70;90.40
39931;DHT22;26635;-35.248;149.138;2024-03-29T12:41:26;18.70;90.40
39931;DHT22;26635;-35.248;149.138;2024-03-29T12:43:55;18.70;90.60
39931;DHT22;26635;-35.248;149.138;2024-03-29T12:46:24;18.60;90.80
39931;DHT22;26635;-35.248;149.138;2024-03-29T12:49:00;18.60;90.70
39931;DHT22;26635;-35.248;149.138;2024-03-29T12:51:28;18.50;90.80
39931;DHT22;26635;-35.248;149.138;2024-03-29T12:54:01;18.50;90.80
39931;DHT22;26635;-35.248;149.138;2024-03-29T12:56:33;18.40;90.80
39931;DHT22;26635;-35.248;149.138;2024-03-29T12:59:05;18.40;90.70
39931;DHT22;26635;-35.248;149.138;2024-03-29T13:01:34;18.30;90.90
39931;DHT22;26635;-35.248;149.138;2024-03-29T13:04:02;18.30;90.90
39931;DHT22;26635;-35.248;149.138;2024-03-29T13:06:31;18.30;91.40
39931;DHT22;26635;-35.248;149.138;2024-03-29T13:08:59;18.20;91.10
39931;DHT22;26635;-35.248;149.138;2024-03-29T13:11:28;18.20;91.20
39931;DHT22;26635;-35.248;149.138;2024-03-29T13:13:56;18.10;91.50
39931;DHT22;26635;-35.248;149.138;2024-03-29T13:16:25;18.10;91.10
39931;DHT22;26635;-35.248;149.138;2024-03-29T13:18:53;18.10;91.40
39931;DHT22;26635;-35.248;149.138;2024-03-29T13:21:21;18.10;91.20
39931;DHT22;26635;-35.248;149.138;2024-03-29T13:23:50;18.00;91.40
39931;DHT22;26635;-35.248;149.138;2024-03-29T13:26:18;18.00;91.50
39931;DHT22;26635;-35.248;149.138;2024-03-29T13:28:46;17.90;91.60
39931;DHT22;26635;-35.248;149.138;2024-03-29T13:31:14;17.90;91.40
39931;DHT22;26635;-35.248;149.138;2024-03-29T13:33:43;17.90;91.40
39931;DHT22;26635;-35.248;149.138;2024-03-29T13:36:12;17.90;91.50
39931;DHT22;26635;-35.248;149.138;2024-03-29T13:38:40;17.90;91.70
39931;DHT22;26635;-35.248;149.138;2024-03-29T13:41:08;17.70;91.60
39931;DHT22;26635;-35.248;149.138;2024-03-29T13:43:38;17.70;91.70
39931;DHT22;26635;-35.248;149.138;2024-03-29T13:46:09;17.60;92.00
39931;DHT22;26635;-35.248;149.138;2024-03-29T13:48:39;17.60;91.70
39931;DHT22;26635;-35.248;149.138;2024-03-29T13:51:12;17.60;91.80
39931;DHT22;26635;-35.248;149.138;2024-03-29T13:53:42;17.60;91.70
39931;DHT22;26635;-35.248;149.138;2024-03-29T13:56:11;17.50;91.50
39931;DHT22;26635;-35.248;149.138;2024-03-29T13:58:40;17.50;91.60
39931;DHT22;26635;-35.248;149.138;2024-03-29T14:01:09;17.40;92.00
39931;DHT22;26635;-35.248;149.138;2024-03-29T14:03:37;17.40;91.60
39931;DHT22;26635;-35.248;149.138;2024-03-29T14:06:05;17.40;91.90
39931;DHT22;26635;-35.248;149.138;2024-03-29T14:08:35;17.40;92.50
39931;DHT22;26635;-35.248;149.138;2024-03-29T14:11:03;17.30;91.70
39931;DHT22;26635;-35.248;149.138;2024-03-29T14:13:33;17.30;91.80
39931;DHT22;26635;-35.248;149.138;2024-03-29T14:16:02;17.30;92.00
39931;DHT22;26635;-35.248;149.138;2024-03-29T14:18:32;17.20;92.30
39931;DHT22;26635;-35.248;149.138;2024-03-29T14:21:06;17.20;92.20
39931;DHT22;26635;-35.248;149.138;2024-03-29T14:23:34;17.10;92.00
39931;DHT22;26635;-35.248;149.138;2024-03-29T14:26:04;17.10;92.00
39931;DHT22;26635;-35.248;149.138;2024-03-29T14:28:32;17.10;91.90
39931;DHT22;26635;-35.248;149.138;2024-03-29T14:31:00;17.00;92.20
39931;DHT22;26635;-35.248;149.138;2024-03-29T14:33:29;17.00;92.40
39931;DHT22;26635;-35.248;149.138;2024-03-29T14:35:58;16.90;92.00
39931;DHT22;26635;-35.248;149.138;2024-03-29T14:38:31;17.00;92.00
39931;DHT22;26635;-35.248;149.138;2024-03-29T14:41:02;16.90;91.90
39931;DHT22;26635;-35.248;149.138;2024-03-29T14:43:31;16.90;92.20
39931;DHT22;26635;-35.248;149.138;2024-03-29T14:45:59;16.90;91.80
39931;DHT22;26635;-35.248;149.138;2024-03-29T14:48:28;16.80;91.90
39931;DHT22;26635;-35.248;149.138;2024-03-29T14:50:56;16.80;92.00
39931;DHT22;26635;-35.248;149.138;2024-03-29T14:53:25;16.70;92.00
39931;DHT22;26635;-35.248;149.138;2024-03-29T14:55:53;16.70;91.80
39931;DHT22;26635;-35.248;149.138;2024-03-29T14:58:22;16.70;92.10
39931;DHT22;26635;-35.248;149.138;2024-03-29T15:00:50;16.70;92.30
39931;DHT22;26635;-35.248;149.138;2024-03-29T15:03:19;16.60;92.60
39931;DHT22;26635;-35.248;149.138;2024-03-29T15:05:47;16.60;92.40
39931;DHT22;26635;-35.248;149.138;2024-03-29T15:08:19;16.50;92.00
39931;DHT22;26635;-35.248;149.138;2024-03-29T15:10:59;16.50;92.30